createdAt,value
2022-10-05T00:01:32.445Z,89.61
2022-10-05T00:04:20.625Z,89.59
2022-10-05T00:07:22.138Z,89.48
2022-10-05T00:10:00.717Z,89.40
2022-10-05T00:12:30.726Z,89.15
2022-10-05T00:15:05.053Z,89.44
2022-10-05T00:17:33.609Z,89.26
2022-10-05T00:20:02.328Z,89.04
2022-10-05T00:22:34.946Z,89.19
2022-10-05T00:25:13.251Z,88.89
2022-10-05T00:27:41.553Z,88.82
2022-10-05T00:30:20.061Z,88.62
2022-10-05T00:32:48.801Z,88.85
2022-10-05T00:35:19.486Z,88.51
2022-10-05T00:37:53.597Z,88.74
2022-10-05T00:41:01.454Z,88.42
2022-10-05T00:44:08.821Z,88.41
2022-10-05T00:47:21.417Z,88.55
2022-10-05T00:50:35.072Z,88.71
2022-10-05T00:53:13.634Z,88.42
2022-10-05T00:55:49.882Z,88.16
2022-10-05T00:58:41.338Z,88.13
2022-10-05T01:01:29.828Z,88.17
2022-10-05T01:04:21.406Z,88.12
2022-10-05T01:07:08.139Z,88.24
2022-10-05T01:10:12.873Z,88.06
2022-10-05T01:13:50.751Z,88.13
2022-10-05T01:16:50.535Z,87.98
2022-10-05T01:19:51.053Z,88.32
2022-10-05T01:23:22.837Z,88.23
2022-10-05T01:26:28.022Z,88.27
2022-10-05T01:29:24.981Z,88.40
2022-10-05T01:32:13.616Z,88.25
2022-10-05T01:35:02.309Z,88.42
2022-10-05T01:38:06.478Z,89.30
2022-10-05T01:40:49.457Z,89.98
2022-10-05T01:43:35.132Z,90.29
2022-10-05T01:46:27.060Z,90.34
2022-10-05T01:49:32.679Z,90.71
2022-10-05T01:52:23.416Z,90.52
2022-10-05T01:54:55.149Z,91.00
2022-10-05T01:58:04.867Z,90.84
2022-10-05T02:00:38.474Z,91.25
2022-10-05T02:03:19.506Z,91.34
2022-10-05T02:05:58.255Z,91.33
2022-10-05T02:08:32.462Z,91.71
2022-10-05T02:11:23.559Z,91.76
2022-10-05T02:14:00.597Z,92.12
2022-10-05T02:16:43.396Z,92.00
2022-10-05T02:19:39.550Z,91.97
2022-10-05T02:22:17.825Z,92.44
2022-10-05T02:24:58.234Z,92.70
2022-10-05T02:27:33.777Z,92.56
2022-10-05T02:30:10.427Z,92.66
2022-10-05T02:32:53.187Z,92.82
2022-10-05T02:35:23.751Z,92.47
2022-10-05T02:38:13.205Z,92.40
2022-10-05T02:40:59.263Z,92.93
2022-10-05T02:43:54.413Z,92.39
2022-10-05T02:46:41.760Z,92.65
2022-10-05T02:49:31.000Z,92.77
2022-10-05T02:52:26.474Z,93.24
2022-10-05T02:55:13.778Z,93.05
2022-10-05T02:58:04.054Z,93.65
2022-10-05T03:00:40.948Z,93.66
2022-10-05T03:03:23.113Z,93.50
2022-10-05T03:05:52.781Z,93.91
2022-10-05T03:09:05.829Z,94.47
2022-10-05T03:11:48.338Z,94.91
2022-10-05T03:14:23.842Z,95.52
2022-10-05T03:16:58.250Z,95.41
2022-10-05T03:20:22.542Z,95.74
2022-10-05T03:23:03.632Z,95.57
2022-10-05T03:26:17.637Z,95.54
2022-10-05T03:29:43.469Z,95.48
2022-10-05T03:32:41.309Z,95.99
2022-10-05T03:36:13.661Z,95.83
2022-10-05T03:39:04.581Z,96.37
2022-10-05T03:41:46.556Z,96.47
2022-10-05T03:44:38.151Z,96.51
2022-10-05T03:47:18.980Z,96.54
2022-10-05T03:49:52.559Z,95.97
2022-10-05T03:52:29.487Z,95.88
2022-10-05T03:55:26.262Z,95.47
2022-10-05T03:57:59.322Z,94.93
2022-10-05T04:00:27.795Z,94.64
2022-10-05T04:03:19.145Z,94.51
2022-10-05T04:06:28.620Z,94.32
2022-10-05T04:09:18.215Z,94.19
2022-10-05T04:11:56.132Z,93.79
2022-10-05T04:14:31.187Z,93.47
2022-10-05T04:17:13.249Z,93.69
2022-10-05T04:19:44.163Z,93.76
2022-10-05T04:22:32.383Z,93.59
2022-10-05T04:25:15.787Z,93.20
2022-10-05T04:28:02.858Z,92.91
2022-10-05T04:30:34.074Z,92.71
2022-10-05T04:33:02.849Z,93.38
2022-10-05T04:35:31.192Z,92.58
2022-10-05T04:38:17.977Z,92.32
2022-10-05T04:41:38.630Z,91.92
2022-10-05T04:44:30.091Z,92.21
2022-10-05T04:47:16.976Z,91.74
2022-10-05T04:50:31.245Z,91.87
2022-10-05T04:53:49.114Z,91.82
2022-10-05T04:56:37.954Z,91.80
2022-10-05T04:59:54.344Z,91.61
2022-10-05T05:03:10.352Z,91.51
2022-10-05T05:06:34.089Z,91.64
2022-10-05T05:09:35.829Z,91.27
2022-10-05T05:12:25.174Z,91.55
2022-10-05T05:15:26.673Z,91.23
2022-10-05T05:18:46.175Z,90.91
2022-10-05T05:21:17.542Z,90.89
2022-10-05T05:24:26.996Z,90.70
2022-10-05T05:27:06.771Z,90.82
2022-10-05T05:29:49.651Z,90.81
2022-10-05T05:32:40.407Z,90.66
2022-10-05T05:36:04.713Z,90.96
2022-10-05T05:38:49.628Z,91.20
2022-10-05T05:41:39.390Z,91.13
2022-10-05T05:44:29.326Z,91.23
2022-10-05T05:47:05.441Z,91.01
2022-10-05T05:50:06.607Z,91.55
2022-10-05T05:52:49.798Z,91.33
2022-10-05T05:55:30.719Z,91.20
2022-10-05T05:58:16.594Z,91.03
2022-10-05T06:00:58.867Z,91.05
2022-10-05T06:03:54.257Z,90.72
2022-10-05T06:06:28.288Z,90.24
2022-10-05T06:09:00.847Z,90.32
2022-10-05T06:11:36.453Z,90.35
2022-10-05T06:14:19.557Z,89.92
2022-10-05T06:16:55.536Z,89.53
2022-10-05T06:19:25.285Z,89.34
2022-10-05T06:22:05.577Z,89.29
2022-10-05T06:24:42.069Z,88.99
2022-10-05T06:27:22.033Z,88.95
2022-10-05T06:30:07.955Z,88.56
2022-10-05T06:32:37.455Z,88.36
2022-10-05T06:35:37.970Z,87.88
2022-10-05T06:38:32.426Z,87.38
2022-10-05T06:41:34.743Z,86.74
2022-10-05T06:44:43.740Z,86.90
2022-10-05T06:47:23.204Z,86.48
2022-10-05T06:50:04.952Z,86.45
2022-10-05T06:52:57.650Z,86.18
2022-10-05T06:55:50.863Z,86.51
2022-10-05T06:59:11.162Z,86.19
2022-10-05T07:02:48.097Z,85.98
2022-10-05T07:05:49.308Z,85.86
2022-10-05T07:09:12.059Z,85.10
2022-10-05T07:12:48.183Z,84.95
2022-10-05T07:15:43.780Z,85.37
2022-10-05T07:18:45.510Z,83.93
2022-10-05T07:21:35.811Z,83.85
2022-10-05T07:24:22.849Z,83.66
2022-10-05T07:27:21.463Z,83.77
2022-10-05T07:30:04.697Z,83.18
2022-10-05T07:33:27.102Z,83.20
2022-10-05T07:36:21.998Z,83.25
2022-10-05T07:38:54.389Z,82.87
2022-10-05T07:41:46.093Z,82.19
2022-10-05T07:44:27.682Z,82.08
2022-10-05T07:47:13.152Z,82.15
2022-10-05T07:49:54.304Z,82.39
2022-10-05T07:52:38.099Z,82.16
2022-10-05T07:55:27.992Z,82.25
2022-10-05T07:58:20.802Z,82.05
2022-10-05T08:01:23.468Z,81.84
2022-10-05T08:04:22.487Z,81.96
2022-10-05T08:06:54.739Z,82.27
2022-10-05T08:13:12.924Z,82.76
2022-10-05T08:15:44.082Z,82.64
2022-10-05T08:18:41.013Z,82.68
2022-10-05T08:21:12.857Z,82.95
2022-10-05T08:23:58.132Z,82.76
2022-10-05T08:26:36.105Z,82.17
2022-10-05T08:29:09.174Z,80.34
2022-10-05T08:31:46.227Z,80.50
2022-10-05T08:34:20.182Z,80.67
2022-10-05T08:37:15.067Z,80.97
2022-10-05T08:40:21.437Z,81.11
2022-10-05T08:43:23.165Z,81.04
2022-10-05T08:46:21.907Z,81.20
2022-10-05T08:49:35.030Z,80.91
2022-10-05T08:52:29.108Z,79.65
2022-10-05T08:55:32.916Z,78.14
2022-10-05T08:58:55.966Z,78.55
2022-10-05T09:02:17.376Z,78.76
2022-10-05T09:05:26.114Z,78.49
2022-10-05T09:08:24.031Z,78.18
2022-10-05T09:10:55.424Z,78.70
2022-10-05T09:14:04.477Z,79.09
2022-10-05T09:17:03.025Z,79.79
2022-10-05T09:20:19.440Z,79.45
2022-10-05T09:23:10.290Z,79.38
2022-10-05T09:25:54.288Z,79.54
2022-10-05T09:28:44.070Z,79.78
2022-10-05T09:31:47.039Z,79.87
2022-10-05T09:34:33.041Z,81.04
2022-10-05T09:37:48.049Z,81.54
2022-10-05T09:40:30.765Z,81.49
2022-10-05T09:43:41.628Z,80.85
2022-10-05T09:46:59.542Z,80.92
2022-10-05T09:49:59.479Z,80.92
2022-10-05T09:52:54.899Z,80.75
2022-10-05T09:55:51.224Z,80.83
2022-10-05T09:58:51.432Z,79.83
2022-10-05T10:02:00.783Z,79.56
2022-10-05T10:04:35.087Z,79.39
2022-10-05T10:07:40.517Z,79.00
2022-10-05T10:10:31.578Z,78.98
2022-10-05T10:13:09.113Z,78.27
2022-10-05T10:15:57.770Z,77.48
2022-10-05T10:19:00.767Z,77.12
2022-10-05T10:22:20.489Z,76.99
2022-10-05T10:25:25.567Z,76.76
2022-10-05T10:28:20.646Z,76.52
2022-10-05T10:31:41.638Z,76.12
2022-10-05T10:34:41.078Z,76.23
2022-10-05T10:37:18.848Z,75.75
2022-10-05T10:40:46.570Z,76.10
2022-10-05T10:44:05.440Z,75.58
2022-10-05T10:46:36.885Z,75.11
2022-10-05T10:49:55.859Z,74.65
2022-10-05T10:53:01.928Z,73.79
2022-10-05T10:55:42.306Z,74.39
2022-10-05T10:58:52.348Z,73.05
2022-10-05T11:01:51.332Z,73.46
2022-10-05T11:05:15.344Z,71.65
2022-10-05T11:08:17.088Z,70.95
2022-10-05T11:11:13.510Z,69.93
2022-10-05T11:13:44.723Z,69.05
2022-10-05T11:16:47.802Z,68.13
2022-10-05T11:20:02.503Z,67.23
2022-10-05T11:22:50.500Z,67.60
2022-10-05T11:25:44.510Z,66.92
2022-10-05T11:29:01.777Z,66.42
2022-10-05T11:31:30.380Z,66.39
2022-10-05T11:34:54.604Z,66.46
2022-10-05T11:37:53.762Z,67.29
2022-10-05T11:40:39.367Z,67.14
2022-10-05T11:43:12.801Z,67.22
2022-10-05T11:45:49.631Z,67.68
2022-10-05T11:48:24.099Z,68.20
2022-10-05T11:51:41.766Z,69.94
2022-10-05T11:54:38.317Z,70.04
2022-10-05T11:57:37.802Z,71.24
2022-10-05T12:00:27.061Z,72.45
2022-10-05T12:03:19.849Z,73.05
2022-10-05T12:06:15.365Z,72.16
2022-10-05T12:09:01.294Z,71.92
2022-10-05T12:12:01.256Z,71.20
2022-10-05T12:14:33.562Z,70.71
2022-10-05T12:17:03.747Z,70.83
2022-10-05T12:19:47.541Z,70.63
2022-10-05T12:22:40.604Z,70.25
2022-10-05T12:25:38.880Z,69.71
2022-10-05T12:28:13.521Z,70.30
2022-10-05T12:30:53.376Z,71.38
2022-10-05T12:33:29.018Z,71.11
2022-10-05T12:36:11.181Z,71.19
2022-10-05T12:38:57.058Z,71.65
2022-10-05T12:41:37.273Z,71.93
2022-10-05T12:44:05.572Z,72.25
2022-10-05T12:46:47.992Z,72.44
2022-10-05T12:49:35.177Z,72.18
2022-10-05T12:52:06.891Z,72.17
2022-10-05T12:54:39.341Z,71.34
2022-10-05T12:57:14.293Z,71.56
2022-10-05T12:59:55.176Z,72.15
2022-10-05T13:02:42.995Z,72.87
2022-10-05T13:05:15.161Z,72.34
2022-10-05T13:08:19.998Z,71.82
2022-10-05T13:11:03.129Z,71.13
2022-10-05T13:14:32.532Z,70.99
2022-10-05T13:17:11.391Z,71.04
2022-10-05T13:19:48.394Z,70.78
2022-10-05T13:22:29.018Z,71.15
2022-10-05T15:00:32.364Z,68.53
2022-10-05T15:03:10.066Z,67.98
2022-10-05T15:06:21.878Z,66.68
2022-10-05T15:09:17.581Z,65.60
2022-10-05T15:11:59.211Z,65.24
2022-10-05T15:14:38.333Z,65.69
2022-10-05T15:17:19.731Z,65.23
2022-10-05T15:20:10.471Z,66.04
2022-10-05T15:23:06.750Z,66.03
2022-10-05T15:25:49.187Z,65.80
2022-10-05T15:28:48.550Z,65.29
2022-10-05T15:31:55.297Z,65.45
2022-10-05T15:34:49.090Z,65.65
2022-10-05T15:37:33.351Z,65.28
2022-10-05T15:40:07.209Z,65.33
2022-10-05T15:42:53.515Z,65.31
2022-10-05T15:45:34.605Z,65.93
2022-10-05T15:48:50.456Z,66.24
2022-10-05T15:51:50.901Z,66.16
2022-10-05T15:55:14.754Z,66.46
2022-10-05T15:58:08.712Z,66.73
2022-10-05T16:00:49.416Z,67.39
2022-10-05T16:03:51.121Z,67.99
2022-10-05T16:06:43.881Z,68.15
2022-10-05T16:09:27.398Z,68.85
2022-10-05T16:12:13.978Z,69.30
2022-10-05T16:14:42.366Z,69.14
2022-10-05T16:17:35.605Z,69.50
2022-10-05T16:20:03.941Z,69.88
2022-10-05T16:22:47.947Z,70.07
2022-10-05T16:25:25.158Z,70.25
2022-10-05T16:28:22.717Z,70.99
2022-10-05T16:31:00.270Z,71.01
2022-10-05T16:33:34.748Z,71.46
2022-10-05T16:36:31.982Z,71.42
2022-10-05T16:39:37.860Z,71.92
2022-10-05T16:42:55.421Z,72.25
2022-10-05T16:45:52.728Z,72.36
2022-10-05T16:48:52.180Z,72.55
2022-10-05T16:52:07.433Z,73.11
2022-10-05T16:55:14.153Z,73.24
2022-10-05T16:57:57.742Z,73.91
2022-10-05T17:01:15.528Z,74.41
2022-10-05T17:04:08.187Z,74.32
2022-10-05T17:07:26.123Z,75.12
2022-10-05T17:10:27.947Z,75.66
2022-10-05T17:13:16.382Z,76.28
2022-10-05T17:16:36.779Z,76.73
2022-10-05T17:19:23.763Z,77.30
2022-10-05T17:22:38.029Z,77.55
2022-10-05T17:25:57.745Z,78.32
2022-10-05T17:29:39.122Z,78.74
2022-10-05T17:32:37.904Z,79.14
2022-10-05T17:36:09.620Z,79.51
2022-10-05T17:39:14.136Z,79.75
2022-10-05T17:41:44.356Z,80.43
2022-10-05T17:44:24.965Z,80.72
2022-10-05T17:47:04.938Z,80.96
2022-10-05T17:50:19.000Z,81.24
2022-10-05T17:53:53.211Z,81.26
2022-10-05T17:56:24.018Z,81.51
2022-10-05T17:58:54.895Z,81.94
2022-10-05T18:01:41.995Z,82.13
2022-10-05T18:04:13.251Z,82.36
2022-10-05T18:10:38.975Z,82.63
2022-10-05T18:13:36.335Z,83.11
2022-10-05T18:16:05.371Z,83.18
2022-10-05T18:18:45.897Z,83.73
2022-10-05T18:21:27.183Z,83.92
2022-10-05T18:24:04.144Z,84.27
2022-10-05T18:27:14.537Z,83.90
2022-10-05T18:30:07.722Z,84.35
2022-10-05T18:32:53.361Z,84.40
2022-10-05T18:35:26.931Z,84.19
2022-10-05T18:38:32.940Z,84.38
2022-10-05T18:41:23.269Z,83.93
2022-10-05T18:44:13.514Z,84.33
2022-10-05T18:47:08.264Z,84.45
2022-10-05T18:50:04.687Z,84.26
2022-10-05T18:53:09.436Z,84.60
2022-10-05T18:55:39.399Z,84.54
2022-10-05T18:58:28.090Z,84.66
2022-10-05T19:00:58.470Z,85.27
2022-10-05T19:03:49.548Z,84.92
2022-10-05T19:06:32.559Z,84.98
2022-10-05T19:09:39.545Z,84.79
2022-10-05T19:12:57.951Z,84.75
2022-10-05T19:15:54.975Z,84.69
2022-10-05T19:22:24.309Z,85.12
2022-10-05T19:25:02.144Z,85.69
2022-10-05T19:28:18.390Z,86.28
2022-10-05T19:31:19.240Z,86.86
2022-10-05T19:34:29.080Z,86.79
2022-10-05T19:37:07.999Z,86.67
2022-10-05T19:40:27.155Z,86.61
2022-10-05T19:43:24.333Z,86.70
2022-10-05T19:46:16.248Z,86.64
2022-10-05T19:48:51.468Z,86.44
2022-10-05T19:51:25.761Z,86.72
2022-10-05T19:54:02.569Z,86.44
2022-10-05T19:56:35.271Z,86.38
2022-10-05T19:59:19.470Z,86.24
2022-10-05T20:01:56.750Z,86.20
2022-10-05T20:04:36.812Z,85.84
2022-10-05T20:07:05.684Z,86.22
2022-10-05T20:09:58.969Z,86.20
2022-10-05T20:12:54.418Z,86.50
2022-10-05T20:15:43.207Z,86.42
2022-10-05T20:18:59.638Z,86.67
2022-10-05T20:21:51.029Z,86.67
2022-10-05T20:24:28.233Z,86.91
2022-10-05T20:27:16.121Z,87.18
2022-10-05T20:29:46.904Z,87.25
2022-10-05T20:32:17.845Z,87.45
2022-10-05T20:34:49.421Z,87.22
2022-10-05T20:37:20.056Z,87.57
2022-10-05T20:39:48.607Z,86.97
2022-10-05T20:42:17.039Z,86.90
2022-10-05T20:44:45.851Z,87.00
2022-10-05T20:47:14.622Z,86.75
2022-10-05T20:49:43.128Z,86.97
2022-10-05T20:52:17.605Z,87.39
2022-10-05T20:57:21.137Z,86.98
2022-10-05T20:59:49.693Z,87.34
2022-10-05T21:02:19.579Z,87.39
2022-10-05T21:04:48.750Z,87.51
2022-10-05T21:07:20.036Z,87.38
2022-10-05T21:09:48.760Z,87.53
2022-10-05T21:12:17.424Z,87.99
2022-10-05T21:14:47.465Z,88.15
2022-10-05T21:17:15.816Z,88.19
2022-10-05T21:19:44.190Z,88.61
2022-10-05T21:22:12.602Z,89.11
2022-10-05T21:24:41.944Z,89.51
2022-10-05T21:27:10.942Z,89.67
2022-10-05T21:29:41.154Z,89.80
2022-10-05T21:32:29.264Z,90.14
2022-10-05T21:34:57.729Z,90.13
2022-10-05T21:37:26.392Z,90.50
2022-10-05T21:39:54.730Z,90.72
2022-10-05T21:42:23.676Z,91.07
2022-10-05T21:44:52.092Z,91.62
2022-10-05T21:47:20.685Z,91.94
2022-10-05T21:49:48.997Z,92.11
2022-10-05T21:52:17.675Z,92.39
2022-10-05T21:54:46.388Z,92.80
2022-10-05T21:57:15.424Z,92.99
2022-10-05T21:59:44.264Z,93.22
2022-10-05T22:02:12.589Z,93.38
2022-10-05T22:04:41.019Z,93.69
2022-10-05T22:07:28.998Z,93.84
2022-10-05T22:09:57.430Z,93.88
2022-10-05T22:12:26.514Z,94.11
2022-10-05T22:14:58.751Z,94.04
2022-10-05T22:17:31.478Z,94.37
2022-10-05T22:20:00.409Z,94.05
2022-10-05T22:22:33.481Z,93.93
2022-10-05T22:25:01.851Z,94.00
2022-10-05T22:27:31.105Z,93.98
2022-10-05T22:30:00.150Z,94.13
2022-10-05T22:32:28.545Z,93.92
2022-10-05T22:34:57.026Z,93.87
2022-10-05T22:37:25.480Z,93.89
2022-10-05T22:39:55.272Z,94.05
2022-10-05T22:42:23.751Z,94.15
2022-10-05T22:44:52.191Z,94.35
2022-10-05T22:47:20.911Z,94.26
2022-10-05T22:49:49.463Z,94.29
2022-10-05T22:52:18.021Z,94.52
2022-10-05T22:54:50.370Z,94.31
2022-10-05T22:57:18.851Z,94.52
2022-10-05T22:59:47.561Z,94.89
2022-10-05T23:02:18.126Z,94.96
2022-10-05T23:04:47.062Z,95.26
2022-10-05T23:07:15.868Z,95.35
2022-10-05T23:09:44.533Z,95.59
2022-10-05T23:12:17.141Z,95.85
2022-10-05T23:14:45.648Z,95.82
2022-10-05T23:17:13.940Z,96.04
2022-10-05T23:19:42.300Z,96.08
2022-10-05T23:22:10.596Z,96.00
2022-10-05T23:24:39.230Z,95.93
2022-10-05T23:27:10.248Z,96.06
2022-10-05T23:29:38.709Z,95.70
2022-10-05T23:32:07.996Z,95.75
2022-10-05T23:34:36.362Z,96.06
2022-10-05T23:37:05.341Z,96.06
2022-10-05T23:39:33.849Z,96.09
2022-10-05T23:42:02.203Z,96.56
2022-10-05T23:44:30.528Z,96.67
2022-10-05T23:46:58.832Z,96.63
2022-10-05T23:49:27.311Z,97.03
2022-10-05T23:51:55.588Z,97.33
2022-10-05T23:54:23.878Z,97.63
2022-10-05T23:56:52.209Z,97.82
2022-10-05T23:59:20.593Z,97.99
